Time;durP1;ratioP1;P1;durP2;ratioP2;P2;SDS_P1;SDS_P2;PMS_P1;PMS_P2;Temp;Humidity;BMP_temperature;BMP_pressure;BME280_temperature;BME280_humidity;BME280_pressure;Samples;Min_cycle;Max_cycle;Signal;HPM_P1;HPM_P2
2022/10/31 00:01:51;;;;;;;1.75;1.30;;;13.80;99.90;;;;;;5021184;28;20620;-67
2022/10/31 00:04:19;;;;;;;1.30;1.20;;;13.80;99.90;;;;;;5015179;28;20260;-64
2022/10/31 00:06:46;;;;;;;1.23;1.20;;;13.80;99.90;;;;;;5010691;28;20229;-66
2022/10/31 00:09:13;;;;;;;1.20;1.20;;;13.80;99.90;;;;;;5002934;28;20230;-66
2022/10/31 00:11:39;;;;;;;1.63;1.30;;;13.90;99.90;;;;;;5002838;28;20223;-65
2022/10/31 00:14:07;;;;;;;1.03;0.90;;;13.90;99.90;;;;;;5004806;28;20213;-66
2022/10/31 00:16:34;;;;;;;1.40;1.30;;;13.90;99.90;;;;;;5004960;28;20230;-65
2022/10/31 00:19:02;;;;;;;1.38;1.20;;;13.80;99.90;;;;;;5003208;28;20198;-66
2022/10/31 00:21:31;;;;;;;1.10;1.10;;;13.80;99.90;;;;;;5009864;28;20305;-67
2022/10/31 00:23:59;;;;;;;1.13;1.10;;;13.90;99.90;;;;;;4998531;28;20209;-64
2022/10/31 00:26:27;;;;;;;1.73;1.20;;;13.90;99.90;;;;;;5007118;28;20280;-65
2022/10/31 00:28:54;;;;;;;1.20;1.20;;;13.90;99.90;;;;;;5002967;28;20226;-66
2022/10/31 00:31:21;;;;;;;1.20;1.10;;;13.90;99.90;;;;;;4998316;28;20208;-65
2022/10/31 00:33:48;;;;;;;1.17;1.17;;;13.90;99.90;;;;;;5012260;28;20656;-67
2022/10/31 00:36:16;;;;;;;1.00;1.00;;;13.90;99.90;;;;;;5004794;28;20776;-66
2022/10/31 00:38:45;;;;;;;3.40;1.33;;;13.80;99.90;;;;;;5003373;28;20213;-66
2022/10/31 00:41:13;;;;;;;1.30;1.20;;;13.70;99.90;;;;;;5003369;28;20205;-66
2022/10/31 00:43:40;;;;;;;1.40;1.30;;;13.70;99.90;;;;;;5003192;28;20620;-67
2022/10/31 00:46:07;;;;;;;1.33;1.23;;;13.70;99.90;;;;;;5006868;28;20485;-65
2022/10/31 00:48:34;;;;;;;1.20;1.20;;;13.70;99.90;;;;;;5003237;28;20600;-67
2022/10/31 00:51:00;;;;;;;1.33;1.23;;;13.70;99.90;;;;;;5008347;28;20212;-66
2022/10/31 00:53:27;;;;;;;1.45;1.35;;;13.70;99.90;;;;;;5005864;28;20206;-66
2022/10/31 00:55:55;;;;;;;1.45;1.27;;;13.60;99.90;;;;;;5011080;28;20230;-66
2022/10/31 00:58:22;;;;;;;1.30;1.20;;;13.60;99.90;;;;;;5004425;28;20198;-67
2022/10/31 01:00:54;;;;;;;2.03;1.77;;;13.60;99.90;;;;;;5010850;28;20205;-64
2022/10/31 01:03:22;;;;;;;1.08;1.08;;;13.60;99.90;;;;;;5001597;28;20213;-66
2022/10/31 01:05:57;;;;;;;1.47;1.33;;;13.50;99.90;;;;;;5002315;28;20229;-65
2022/10/31 01:08:24;;;;;;;1.10;1.10;;;13.50;99.90;;;;;;5010619;28;20209;-66
2022/10/31 01:11:05;;;;;;;2.47;1.52;;;13.50;99.90;;;;;;5015529;28;20210;-67
2022/10/31 01:13:32;;;;;;;1.70;1.30;;;13.50;99.90;;;;;;5014773;28;20207;-66
2022/10/31 01:16:00;;;;;;;1.20;1.10;;;13.50;99.90;;;;;;5013702;28;20229;-67
2022/10/31 01:18:28;;;;;;;1.53;1.33;;;13.40;99.90;;;;;;5012403;28;20398;-65
2022/10/31 01:20:59;;;;;;;1.33;1.23;;;13.40;99.90;;;;;;5015115;28;20205;-65
2022/10/31 01:23:26;;;;;;;2.20;1.25;;;13.40;99.90;;;;;;5013510;28;20205;-65
2022/10/31 01:26:02;;;;;;;1.17;1.17;;;13.40;99.90;;;;;;5019838;28;20602;-66
2022/10/31 01:28:29;;;;;;;1.20;1.20;;;13.40;99.90;;;;;;5014108;28;20224;-66
2022/10/31 01:30:56;;;;;;;1.57;1.47;;;13.40;99.90;;;;;;5012949;28;20586;-66
2022/10/31 01:33:23;;;;;;;1.42;1.33;;;13.40;99.90;;;;;;5012177;28;20231;-66
2022/10/31 01:35:50;;;;;;;1.05;1.02;;;13.30;99.90;;;;;;5013734;28;20233;-65
2022/10/31 01:38:17;;;;;;;1.33;1.23;;;13.30;99.90;;;;;;5013789;28;20285;-66
2022/10/31 01:40:43;;;;;;;1.55;1.45;;;13.20;99.90;;;;;;5013550;28;20668;-66
2022/10/31 01:43:14;;;;;;;1.55;1.45;;;13.20;99.90;;;;;;5013535;28;20236;-65
2022/10/31 01:45:41;;;;;;;1.10;1.10;;;13.20;99.90;;;;;;5014025;28;20283;-67
2022/10/31 01:48:14;;;;;;;1.40;1.30;;;13.20;99.90;;;;;;5013453;28;20708;-66
2022/10/31 01:50:43;;;;;;;1.27;1.20;;;13.10;99.90;;;;;;5013191;28;20211;-68
2022/10/31 01:53:12;;;;;;;1.43;1.20;;;13.10;99.90;;;;;;5010245;28;20212;-67
2022/10/31 01:55:41;;;;;;;1.30;1.17;;;13.20;99.90;;;;;;5018025;28;20229;-63
2022/10/31 01:58:12;;;;;;;1.30;1.20;;;13.20;99.90;;;;;;5019659;28;20200;-70
2022/10/31 02:00:42;;;;;;;1.30;1.20;;;13.30;99.90;;;;;;5013755;28;20207;-67
2022/10/31 02:03:09;;;;;;;1.15;1.10;;;13.30;99.90;;;;;;5013400;28;20209;-68
2022/10/31 02:05:36;;;;;;;1.30;1.20;;;13.30;99.90;;;;;;5014042;28;20225;-67
2022/10/31 02:08:08;;;;;;;1.10;1.10;;;13.30;99.90;;;;;;5014870;28;20205;-67
2022/10/31 02:10:37;;;;;;;1.35;1.25;;;13.30;99.90;;;;;;5010925;28;20216;-67
2022/10/31 02:13:07;;;;;;;1.20;1.10;;;13.30;99.90;;;;;;5012149;28;20213;-67
2022/10/31 02:15:37;;;;;;;1.20;1.10;;;13.30;99.90;;;;;;5013507;28;20723;-69
2022/10/31 02:18:06;;;;;;;2.28;1.40;;;13.20;99.90;;;;;;5025769;28;20229;-65
2022/10/31 02:20:39;;;;;;;1.00;1.00;;;13.20;99.90;;;;;;5014136;28;20207;-66
2022/10/31 02:23:38;;;;;;;1.13;1.13;;;13.20;99.90;;;;;;5016736;28;20216;-66
2022/10/31 02:26:18;;;;;;;1.85;1.15;;;13.20;99.90;;;;;;5011607;28;20267;-65
2022/10/31 02:29:16;;;;;;;1.23;1.17;;;13.20;99.90;;;;;;5006068;28;20687;-65
2022/10/31 02:31:54;;;;;;;1.00;1.00;;;13.30;99.90;;;;;;5005701;28;20227;-66
2022/10/31 02:34:29;;;;;;;1.67;1.23;;;13.30;99.90;;;;;;5011788;28;20216;-66
2022/10/31 02:37:01;;;;;;;1.57;1.27;;;13.20;99.90;;;;;;5012493;28;20233;-65
2022/10/31 02:39:35;;;;;;;1.40;1.30;;;13.30;99.90;;;;;;5012226;28;20292;-66
2022/10/31 02:42:08;;;;;;;1.38;1.27;;;13.30;99.90;;;;;;5012905;28;20584;-66
2022/10/31 02:44:39;;;;;;;1.30;1.20;;;13.30;99.90;;;;;;5009334;28;20292;-66
2022/10/31 02:47:12;;;;;;;1.02;0.98;;;13.30;99.90;;;;;;5009054;28;20208;-66
2022/10/31 02:49:43;;;;;;;1.20;1.20;;;13.30;99.90;;;;;;5009191;28;20604;-67
2022/10/31 02:52:19;;;;;;;1.65;1.30;;;13.30;99.90;;;;;;5012286;28;20296;-65
2022/10/31 02:54:48;;;;;;;1.07;1.07;;;13.30;99.90;;;;;;5012084;28;20235;-66
2022/10/31 02:57:19;;;;;;;1.30;1.20;;;13.30;99.90;;;;;;5012319;28;20264;-66
2022/10/31 02:59:51;;;;;;;1.27;1.23;;;13.20;99.90;;;;;;5012403;28;20202;-66
2022/10/31 03:02:40;;;;;;;1.20;1.10;;;13.20;99.90;;;;;;5011565;28;20205;-66
2022/10/31 03:05:21;;;;;;;1.27;1.25;;;13.30;99.90;;;;;;5012236;28;20777;-66
2022/10/31 03:07:57;;;;;;;1.10;1.10;;;13.30;99.90;;;;;;5007078;28;20209;-65
2022/10/31 03:10:34;;;;;;;2.03;1.27;;;13.30;99.90;;;;;;5015014;28;20212;-65
2022/10/31 03:13:09;;;;;;;1.93;1.13;;;13.20;99.90;;;;;;5013736;28;20201;-66
2022/10/31 03:15:39;;;;;;;1.43;1.33;;;13.20;99.90;;;;;;5012295;28;20231;-64
2022/10/31 03:18:10;;;;;;;1.23;1.10;;;13.20;99.90;;;;;;5022701;28;20281;-66
2022/10/31 03:20:40;;;;;;;1.30;1.20;;;13.10;99.90;;;;;;5024885;28;20292;-67
2022/10/31 03:23:11;;;;;;;1.30;1.23;;;13.10;99.90;;;;;;5024529;28;20292;-66
2022/10/31 03:25:40;;;;;;;1.40;1.30;;;13.10;99.90;;;;;;5018089;28;20296;-66
2022/10/31 03:28:09;;;;;;;1.52;1.40;;;13.10;99.90;;;;;;5015273;28;20654;-68
2022/10/31 03:30:40;;;;;;;1.38;1.27;;;13.10;99.90;;;;;;5013730;28;20205;-66
2022/10/31 03:33:12;;;;;;;1.77;1.60;;;13.10;99.90;;;;;;5019721;28;20228;-66
2022/10/31 03:35:43;;;;;;;1.90;1.50;;;13.00;99.90;;;;;;5018123;28;20236;-66
2022/10/31 03:38:11;;;;;;;1.25;1.20;;;13.00;99.90;;;;;;5021042;28;20292;-66
2022/10/31 03:40:41;;;;;;;1.60;1.50;;;12.90;99.90;;;;;;5020316;28;20610;-66
2022/10/31 03:43:13;;;;;;;1.60;1.33;;;12.90;99.90;;;;;;5019272;28;20660;-65
2022/10/31 03:45:44;;;;;;;1.35;1.25;;;12.80;99.90;;;;;;5015850;28;20224;-67
2022/10/31 03:48:14;;;;;;;1.25;1.23;;;12.80;99.90;;;;;;5021014;28;20273;-67
2022/10/31 03:50:48;;;;;;;1.30;1.20;;;12.70;99.90;;;;;;5019569;28;20244;-66
2022/10/31 03:53:21;;;;;;;1.37;1.10;;;12.70;99.90;;;;;;5018727;28;20205;-66
2022/10/31 03:55:53;;;;;;;1.57;1.30;;;12.80;99.90;;;;;;5020944;28;20969;-65
2022/10/31 03:58:25;;;;;;;1.50;1.40;;;12.70;99.90;;;;;;5019746;28;20201;-65
2022/10/31 04:00:55;;;;;;;1.10;1.10;;;12.80;99.90;;;;;;5019724;28;20207;-65
2022/10/31 04:03:27;;;;;;;1.23;1.20;;;12.70;99.90;;;;;;5018225;28;20209;-66
2022/10/31 04:05:57;;;;;;;1.48;1.38;;;12.70;99.90;;;;;;5021500;28;20229;-67
2022/10/31 04:08:27;;;;;;;1.30;1.20;;;12.70;99.90;;;;;;5019403;28;20648;-65
2022/10/31 04:10:57;;;;;;;1.90;1.58;;;12.70;99.90;;;;;;5015776;28;20208;-67
2022/10/31 04:13:27;;;;;;;1.60;1.50;;;12.70;99.90;;;;;;5014538;28;20209;-66
2022/10/31 04:15:56;;;;;;;1.00;1.00;;;12.70;99.90;;;;;;5015764;28;20236;-66
2022/10/31 04:18:25;;;;;;;1.37;1.27;;;12.70;99.90;;;;;;5015052;28;20215;-66
2022/10/31 04:21:01;;;;;;;1.30;1.20;;;12.60;99.90;;;;;;5015506;28;20577;-66
2022/10/31 04:23:29;;;;;;;1.67;1.57;;;12.60;99.90;;;;;;5014689;28;20205;-65
2022/10/31 04:25:56;;;;;;;1.37;1.20;;;12.60;99.90;;;;;;5015235;28;20221;-65
2022/10/31 04:28:23;;;;;;;1.20;1.20;;;12.60;99.90;;;;;;5015323;28;20217;-66
2022/10/31 04:30:50;;;;;;;1.00;1.00;;;12.60;99.90;;;;;;5014811;28;20726;-66
2022/10/31 04:33:16;;;;;;;1.23;1.20;;;12.60;99.90;;;;;;5014280;28;20563;-66
2022/10/31 04:35:44;;;;;;;1.50;1.40;;;12.60;99.90;;;;;;5015011;28;20235;-65
2022/10/31 04:38:11;;;;;;;1.13;1.13;;;12.60;99.90;;;;;;5015316;28;20211;-67
2022/10/31 04:40:38;;;;;;;1.53;1.40;;;12.60;99.90;;;;;;5016293;28;20569;-65
2022/10/31 04:43:05;;;;;;;1.70;1.60;;;12.50;99.90;;;;;;5019633;28;20209;-66
2022/10/31 04:45:32;;;;;;;1.75;1.38;;;12.60;99.90;;;;;;5020332;28;20221;-67
2022/10/31 04:47:58;;;;;;;1.13;1.13;;;12.60;99.90;;;;;;5015731;28;20204;-66
2022/10/31 04:50:25;;;;;;;1.50;1.40;;;12.60;99.90;;;;;;5014872;28;20229;-65
2022/10/31 04:52:53;;;;;;;1.40;1.30;;;12.60;99.90;;;;;;5013796;28;20656;-65
2022/10/31 04:55:20;;;;;;;1.40;1.30;;;12.60;99.90;;;;;;5014269;28;20233;-65
2022/10/31 04:57:49;;;;;;;1.03;1.00;;;12.50;99.90;;;;;;5014833;28;20221;-66
2022/10/31 05:00:18;;;;;;;1.57;1.40;;;12.50;99.90;;;;;;5018934;28;20232;-65
2022/10/31 05:02:46;;;;;;;1.20;1.20;;;12.50;99.90;;;;;;5014451;28;20649;-66
2022/10/31 05:05:13;;;;;;;1.10;1.10;;;12.40;99.90;;;;;;5014752;28;20225;-66
2022/10/31 05:07:41;;;;;;;1.40;1.20;;;12.40;99.90;;;;;;5015196;28;20210;-66
2022/10/31 05:10:11;;;;;;;1.40;1.30;;;12.40;99.90;;;;;;5014447;28;21051;-66
2022/10/31 05:12:38;;;;;;;1.70;1.60;;;12.50;99.90;;;;;;5007816;28;20205;-66
2022/10/31 05:15:06;;;;;;;1.50;1.40;;;12.40;99.90;;;;;;5017864;28;20325;-66
2022/10/31 05:17:33;;;;;;;1.40;1.30;;;12.40;99.90;;;;;;5015271;28;20289;-65
2022/10/31 05:19:59;;;;;;;1.23;1.23;;;12.40;99.90;;;;;;5016145;28;20660;-65
2022/10/31 05:22:26;;;;;;;1.40;1.30;;;12.50;99.90;;;;;;5019364;28;20205;-66
2022/10/31 05:24:53;;;;;;;1.10;1.10;;;12.40;99.90;;;;;;5020223;28;20300;-70
2022/10/31 05:27:21;;;;;;;1.30;1.30;;;12.40;99.90;;;;;;5006292;28;20201;-66
2022/10/31 05:29:48;;;;;;;1.37;1.30;;;12.40;99.90;;;;;;5014673;28;20251;-66
2022/10/31 05:32:15;;;;;;;1.30;1.20;;;12.30;99.90;;;;;;5024031;28;20300;-66
2022/10/31 05:34:42;;;;;;;1.33;1.23;;;12.30;99.90;;;;;;5025593;28;20296;-66
2022/10/31 05:37:09;;;;;;;1.93;1.30;;;12.20;99.90;;;;;;5025552;28;20237;-65
2022/10/31 05:39:35;;;;;;;1.60;1.50;;;12.20;99.90;;;;;;5023414;28;20641;-66
2022/10/31 05:42:02;;;;;;;1.40;1.30;;;12.20;99.90;;;;;;5020708;28;20301;-66
2022/10/31 05:44:30;;;;;;;1.63;1.43;;;12.20;99.90;;;;;;5006181;28;20663;-66
2022/10/31 05:46:57;;;;;;;1.20;1.20;;;12.30;99.90;;;;;;5014737;28;20229;-66
2022/10/31 05:49:24;;;;;;;1.00;1.00;;;12.30;99.90;;;;;;5014092;28;20221;-67
2022/10/31 05:51:51;;;;;;;1.67;1.43;;;12.40;99.90;;;;;;5013587;28;20210;-65
2022/10/31 05:54:18;;;;;;;1.23;1.13;;;12.30;99.90;;;;;;5012235;28;20282;-67
2022/10/31 05:56:44;;;;;;;1.20;1.20;;;12.30;99.90;;;;;;5014094;28;20225;-67
2022/10/31 05:59:11;;;;;;;2.08;1.40;;;12.40;99.90;;;;;;5013676;28;20243;-65
2022/10/31 06:01:39;;;;;;;1.37;1.27;;;12.40;99.90;;;;;;5013661;28;20201;-66
2022/10/31 06:04:06;;;;;;;1.27;1.20;;;12.50;99.90;;;;;;5022289;28;20194;-66
2022/10/31 06:06:33;;;;;;;1.20;1.20;;;12.50;99.90;;;;;;5033250;28;20380;-65
2022/10/31 06:09:00;;;;;;;1.40;1.30;;;12.50;99.90;;;;;;5033633;28;20277;-66
2022/10/31 06:11:26;;;;;;;2.60;1.30;;;12.50;99.90;;;;;;5033875;28;20236;-66
2022/10/31 06:13:53;;;;;;;1.43;1.30;;;12.60;99.90;;;;;;5025758;28;20205;-65
2022/10/31 06:16:20;;;;;;;1.50;1.40;;;12.60;99.90;;;;;;5013882;28;20231;-66
2022/10/31 06:18:48;;;;;;;1.47;1.37;;;12.60;99.90;;;;;;5013812;28;20207;-65
2022/10/31 06:21:15;;;;;;;1.50;1.30;;;12.70;99.90;;;;;;5012961;28;20201;-65
2022/10/31 06:23:42;;;;;;;1.40;1.30;;;12.70;99.90;;;;;;5012194;28;20252;-65
2022/10/31 06:26:09;;;;;;;0.93;0.93;;;12.70;99.90;;;;;;5012904;28;20230;-65
2022/10/31 06:28:35;;;;;;;1.40;1.30;;;12.70;99.90;;;;;;5007160;28;20211;-65
2022/10/31 06:31:02;;;;;;;1.67;1.47;;;12.80;99.90;;;;;;5013065;28;20239;-66
2022/10/31 06:33:29;;;;;;;1.00;1.00;;;12.80;99.90;;;;;;5012727;28;20224;-66
2022/10/31 06:35:57;;;;;;;1.30;1.30;;;12.70;99.90;;;;;;5012762;28;20233;-66
2022/10/31 06:38:26;;;;;;;1.23;1.17;;;12.70;99.90;;;;;;5012889;28;20209;-65
2022/10/31 06:40:52;;;;;;;1.50;1.40;;;12.70;99.90;;;;;;5012678;28;20652;-66
2022/10/31 06:43:19;;;;;;;1.57;1.47;;;12.70;99.90;;;;;;5012666;28;20209;-66
2022/10/31 06:45:46;;;;;;;1.53;1.43;;;12.80;99.90;;;;;;5019858;28;20229;-67
2022/10/31 06:48:13;;;;;;;1.50;1.40;;;12.70;99.90;;;;;;5017659;28;20205;-66
2022/10/31 06:50:40;;;;;;;1.47;1.37;;;12.70;99.90;;;;;;5017250;28;20225;-66
2022/10/31 06:53:10;;;;;;;1.43;1.40;;;12.80;99.90;;;;;;5015465;28;20202;-65
2022/10/31 06:55:37;;;;;;;1.60;1.50;;;12.80;99.90;;;;;;5023821;28;20289;-66
2022/10/31 06:58:04;;;;;;;1.60;1.50;;;12.80;99.90;;;;;;5020750;28;20297;-66
2022/10/31 07:00:31;;;;;;;1.63;1.53;;;12.80;99.90;;;;;;5013059;28;20275;-66
2022/10/31 07:03:00;;;;;;;1.90;1.80;;;12.90;99.90;;;;;;5012525;28;20201;-66
2022/10/31 07:05:28;;;;;;;2.00;1.90;;;13.10;99.90;;;;;;5012157;28;20312;-65
2022/10/31 07:07:55;;;;;;;1.90;1.80;;;12.90;99.90;;;;;;5013508;28;20215;-65
2022/10/31 07:10:25;;;;;;;1.97;1.60;;;13.00;99.90;;;;;;5012634;28;20715;-66
2022/10/31 07:12:55;;;;;;;1.57;1.47;;;13.00;99.90;;;;;;5012263;28;20245;-65
2022/10/31 07:15:22;;;;;;;1.40;1.30;;;13.10;99.90;;;;;;5006716;28;20232;-66
2022/10/31 07:17:49;;;;;;;1.40;1.30;;;13.20;99.90;;;;;;5008931;28;20213;-66
2022/10/31 07:20:17;;;;;;;1.60;1.50;;;13.30;99.90;;;;;;5017034;28;20260;-66
2022/10/31 07:22:43;;;;;;;1.40;1.30;;;13.30;99.90;;;;;;5014350;28;20209;-65
2022/10/31 07:25:11;;;;;;;1.40;1.30;;;13.60;99.90;;;;;;5010063;28;20221;-65
2022/10/31 07:27:40;;;;;;;1.23;1.23;;;13.50;99.90;;;;;;5011472;28;20216;-65
2022/10/31 07:30:08;;;;;;;1.30;1.30;;;13.50;99.90;;;;;;5013088;28;20221;-65
2022/10/31 07:32:40;;;;;;;1.50;1.40;;;13.60;99.90;;;;;;5010429;28;20659;-65
2022/10/31 07:35:07;;;;;;;1.27;1.17;;;13.60;99.90;;;;;;5012568;28;20248;-63
2022/10/31 07:37:34;;;;;;;1.40;1.30;;;13.60;99.90;;;;;;5010151;28;20229;-65
2022/10/31 07:40:01;;;;;;;1.60;1.50;;;13.70;99.90;;;;;;5010026;28;20233;-66
2022/10/31 07:42:28;;;;;;;1.97;1.40;;;13.70;99.90;;;;;;5009429;28;20220;-65
2022/10/31 07:44:56;;;;;;;1.33;1.23;;;13.80;99.90;;;;;;5008469;28;20212;-65
2022/10/31 07:47:23;;;;;;;1.30;1.30;;;13.80;99.90;;;;;;5014024;28;20702;-65
2022/10/31 07:49:50;;;;;;;2.07;1.50;;;13.90;99.90;;;;;;5010764;28;20216;-66
2022/10/31 07:52:16;;;;;;;1.60;1.50;;;13.90;99.90;;;;;;5008281;28;20202;-64
2022/10/31 07:54:43;;;;;;;1.70;1.60;;;14.00;99.90;;;;;;5007081;28;20209;-65
2022/10/31 07:57:10;;;;;;;1.27;1.23;;;14.10;99.90;;;;;;5006669;28;20202;-65
2022/10/31 07:59:37;;;;;;;1.60;1.40;;;14.30;99.90;;;;;;5007064;28;20641;-65
2022/10/31 08:02:06;;;;;;;1.60;1.50;;;14.30;99.90;;;;;;5006424;28;20214;-65
2022/10/31 08:04:32;;;;;;;1.30;1.20;;;14.40;99.90;;;;;;5008217;28;20752;-65
2022/10/31 08:06:59;;;;;;;1.57;1.47;;;14.50;99.90;;;;;;5008860;28;20233;-65
2022/10/31 08:09:26;;;;;;;1.20;1.20;;;14.60;99.90;;;;;;5009301;28;20214;-65
2022/10/31 08:11:54;;;;;;;1.70;1.57;;;14.70;99.90;;;;;;5008175;28;20641;-65
2022/10/31 08:14:20;;;;;;;1.27;1.17;;;14.70;99.90;;;;;;5007630;28;20275;-65
2022/10/31 08:16:47;;;;;;;1.20;1.20;;;14.80;99.90;;;;;;5008847;28;20229;-65
2022/10/31 08:19:15;;;;;;;1.47;1.20;;;14.90;99.90;;;;;;5012309;28;20588;-64
2022/10/31 08:21:42;;;;;;;1.17;1.13;;;15.00;99.90;;;;;;5013514;28;20227;-65
2022/10/31 08:24:09;;;;;;;1.37;1.27;;;15.10;99.90;;;;;;5012029;28;20212;-66
2022/10/31 08:26:36;;;;;;;2.07;1.40;;;15.20;99.90;;;;;;5009934;28;20287;-65
2022/10/31 08:29:04;;;;;;;1.53;1.43;;;15.30;99.90;;;;;;5012484;28;20214;-65
2022/10/31 08:31:31;;;;;;;1.10;1.10;;;15.40;99.90;;;;;;5012466;28;20233;-65
2022/10/31 08:33:57;;;;;;;1.40;1.30;;;15.50;99.90;;;;;;5011384;28;20232;-66
2022/10/31 08:36:25;;;;;;;1.20;1.10;;;15.70;99.90;;;;;;5011964;28;20238;-64
2022/10/31 08:38:54;;;;;;;1.37;1.27;;;15.70;99.90;;;;;;5011669;28;20240;-65
2022/10/31 08:41:21;;;;;;;2.10;1.63;;;15.80;99.90;;;;;;5012297;28;20202;-65
2022/10/31 08:43:48;;;;;;;1.40;1.30;;;15.90;99.90;;;;;;5009632;28;20292;-64
2022/10/31 08:46:15;;;;;;;1.67;1.37;;;15.90;99.90;;;;;;5004790;28;20225;-66
2022/10/31 08:48:42;;;;;;;1.50;1.30;;;15.80;99.90;;;;;;5010943;28;20672;-65
2022/10/31 08:51:10;;;;;;;1.40;1.30;;;15.90;99.90;;;;;;5008423;28;20224;-65
2022/10/31 08:53:38;;;;;;;1.33;1.23;;;16.00;99.90;;;;;;5003583;28;20205;-66
2022/10/31 08:56:05;;;;;;;1.53;1.43;;;16.00;99.90;;;;;;5009551;28;20221;-65
2022/10/31 08:58:32;;;;;;;1.50;1.40;;;16.10;99.90;;;;;;5013926;28;20682;-65
2022/10/31 09:01:01;;;;;;;1.20;1.20;;;16.10;99.90;;;;;;5014004;28;20667;-66
2022/10/31 09:03:30;;;;;;;1.45;1.35;;;16.10;99.90;;;;;;5012968;28;20682;-65
2022/10/31 09:05:58;;;;;;;1.23;1.23;;;16.10;99.90;;;;;;5014277;28;20229;-65
2022/10/31 09:08:26;;;;;;;1.40;1.30;;;16.10;99.90;;;;;;5014747;28;20595;-65
2022/10/31 09:10:57;;;;;;;1.30;1.20;;;16.10;99.90;;;;;;5013938;28;20604;-65
2022/10/31 09:13:24;;;;;;;1.60;1.50;;;16.20;99.90;;;;;;5012999;28;20209;-66
2022/10/31 09:15:51;;;;;;;1.57;1.47;;;16.20;99.90;;;;;;5012009;28;20221;-65
2022/10/31 09:18:20;;;;;;;1.80;1.53;;;16.20;99.90;;;;;;5012356;28;20668;-65
2022/10/31 09:20:48;;;;;;;1.57;1.47;;;16.30;99.90;;;;;;5026194;28;20269;-64
2022/10/31 09:23:17;;;;;;;1.60;1.50;;;16.50;99.90;;;;;;5008483;28;20205;-65
2022/10/31 09:25:45;;;;;;;1.60;1.50;;;16.30;99.90;;;;;;5003409;28;20229;-64
2022/10/31 09:28:15;;;;;;;1.53;1.43;;;16.30;99.90;;;;;;5004195;28;20256;-63
2022/10/31 09:30:42;;;;;;;1.40;1.30;;;16.40;99.90;;;;;;5003626;28;20221;-65
2022/10/31 09:33:12;;;;;;;1.50;1.40;;;16.40;99.90;;;;;;4999980;28;20202;-64
2022/10/31 09:35:39;;;;;;;1.50;1.40;;;16.30;99.90;;;;;;4999495;28;20233;-64
2022/10/31 09:38:09;;;;;;;1.37;1.27;;;16.50;99.90;;;;;;5006816;28;20309;-65
2022/10/31 09:40:37;;;;;;;1.40;1.30;;;16.50;99.90;;;;;;5011433;28;20292;-64
2022/10/31 09:43:12;;;;;;;1.80;1.50;;;16.70;99.90;;;;;;5008987;28;20210;-65
2022/10/31 09:45:53;;;;;;;1.17;1.17;;;16.80;99.90;;;;;;5005922;28;20315;-64
2022/10/31 09:48:46;;;;;;;1.87;1.67;;;16.70;99.90;;;;;;5009887;28;20204;-66
2022/10/31 09:51:17;;;;;;;1.60;1.50;;;16.70;99.90;;;;;;5020455;28;20306;-65
2022/10/31 09:53:49;;;;;;;1.50;1.40;;;16.60;99.90;;;;;;5016711;28;20649;-65
2022/10/31 09:56:19;;;;;;;1.53;1.40;;;16.60;99.90;;;;;;5011922;28;20289;-66
2022/10/31 09:58:48;;;;;;;1.50;1.40;;;16.80;99.90;;;;;;5014970;28;20205;-66
2022/10/31 10:01:36;;;;;;;1.70;1.60;;;16.70;99.90;;;;;;5013416;28;20202;-66
2022/10/31 10:04:21;;;;;;;1.40;1.30;;;16.80;99.90;;;;;;5010813;28;20202;-65
2022/10/31 10:06:52;;;;;;;1.63;1.53;;;16.90;99.90;;;;;;5012273;28;20237;-65
2022/10/31 10:09:22;;;;;;;2.10;1.40;;;16.90;99.90;;;;;;5013859;28;20213;-65
2022/10/31 10:11:59;;;;;;;1.60;1.50;;;16.90;99.90;;;;;;5012809;28;20225;-65
2022/10/31 10:14:36;;;;;;;1.50;1.40;;;16.90;99.90;;;;;;5011166;28;20201;-67
2022/10/31 10:17:17;;;;;;;1.70;1.60;;;16.90;99.90;;;;;;5010436;28;20230;-65
2022/10/31 10:20:02;;;;;;;1.23;1.23;;;16.90;99.90;;;;;;5011252;28;20281;-65
2022/10/31 10:22:37;;;;;;;1.50;1.40;;;16.90;99.90;;;;;;5012028;28;20204;-68
2022/10/31 10:25:16;;;;;;;1.60;1.50;;;16.90;99.90;;;;;;5013092;28;20258;-65
2022/10/31 10:27:51;;;;;;;1.40;1.40;;;17.00;99.90;;;;;;5006897;28;20212;-65
2022/10/31 10:30:20;;;;;;;1.57;1.47;;;16.90;99.90;;;;;;5011567;28;20211;-65
2022/10/31 10:32:51;;;;;;;1.83;1.73;;;17.00;99.90;;;;;;5011458;28;20212;-65
2022/10/31 10:35:25;;;;;;;2.43;1.30;;;17.00;99.90;;;;;;5012636;28;20233;-66
2022/10/31 10:37:57;;;;;;;1.50;1.40;;;17.00;99.90;;;;;;5007209;28;20551;-65
2022/10/31 10:40:27;;;;;;;1.60;1.50;;;16.90;99.90;;;;;;5011824;28;20213;-65
2022/10/31 10:43:21;;;;;;;1.63;1.53;;;16.90;99.90;;;;;;5005420;28;20299;-65
2022/10/31 10:48:46;;;;;;;1.40;1.30;;;17.10;99.90;;;;;;5011861;28;20352;-65
2022/10/31 10:51:22;;;;;;;1.63;1.50;;;17.00;99.90;;;;;;5011986;28;20312;-66
2022/10/31 10:54:05;;;;;;;1.70;1.60;;;17.00;99.90;;;;;;5012269;28;20585;-64
2022/10/31 10:56:40;;;;;;;1.70;1.60;;;16.90;99.90;;;;;;5011481;28;20220;-66
2022/10/31 10:59:11;;;;;;;1.73;1.63;;;17.00;99.90;;;;;;5008668;28;20200;-65
2022/10/31 11:01:40;;;;;;;2.00;1.60;;;17.10;99.90;;;;;;5012061;28;20211;-66
2022/10/31 11:04:24;;;;;;;1.40;1.30;;;17.10;99.90;;;;;;5008885;28;20201;-66
2022/10/31 11:06:59;;;;;;;1.70;1.50;;;17.10;99.90;;;;;;5010508;28;20235;-64
2022/10/31 11:09:25;;;;;;;1.60;1.50;;;17.20;99.90;;;;;;5000665;28;20197;-66
2022/10/31 11:11:52;;;;;;;1.53;1.43;;;17.10;99.90;;;;;;5008116;28;20235;-65
2022/10/31 11:14:20;;;;;;;1.73;1.63;;;17.10;99.90;;;;;;5008557;28;20732;-65
2022/10/31 11:16:50;;;;;;;1.80;1.70;;;16.90;99.90;;;;;;5011447;28;20229;-65
2022/10/31 11:19:21;;;;;;;1.77;1.67;;;16.80;99.90;;;;;;5012393;28;20288;-65
2022/10/31 11:21:49;;;;;;;1.90;1.80;;;16.90;99.90;;;;;;5013121;28;20207;-64
2022/10/31 11:24:17;;;;;;;1.87;1.77;;;17.00;99.90;;;;;;5009647;28;20723;-65
2022/10/31 11:26:49;;;;;;;1.90;1.80;;;17.10;99.90;;;;;;5013286;28;20258;-65
2022/10/31 11:29:21;;;;;;;1.80;1.70;;;17.00;99.90;;;;;;5012533;28;20203;-66
2022/10/31 11:31:51;;;;;;;1.70;1.60;;;17.10;99.90;;;;;;5012309;28;20228;-65
2022/10/31 11:34:29;;;;;;;1.67;1.57;;;17.10;99.90;;;;;;5013235;28;20197;-65
2022/10/31 11:37:02;;;;;;;1.33;1.30;;;17.10;99.90;;;;;;5010549;28;20566;-64
2022/10/31 11:39:29;;;;;;;1.80;1.70;;;17.10;99.90;;;;;;5012614;28;20216;-65
2022/10/31 11:42:00;;;;;;;1.80;1.70;;;17.10;99.90;;;;;;5012447;28;20229;-65
2022/10/31 11:44:30;;;;;;;1.83;1.73;;;17.10;99.90;;;;;;5008410;28;20418;-64
2022/10/31 11:46:59;;;;;;;1.93;1.80;;;17.00;99.90;;;;;;5015428;28;20320;-64
2022/10/31 11:49:31;;;;;;;2.07;1.97;;;17.00;99.90;;;;;;5019897;28;20201;-66
2022/10/31 11:52:02;;;;;;;2.23;1.60;;;17.00;99.90;;;;;;5016559;28;20225;-65
2022/10/31 11:54:32;;;;;;;1.63;1.53;;;17.00;99.90;;;;;;5019380;28;20201;-64
2022/10/31 11:56:59;;;;;;;1.60;1.50;;;17.00;99.90;;;;;;5018095;28;20233;-65
2022/10/31 11:59:29;;;;;;;1.60;1.50;;;17.10;99.90;;;;;;5012437;28;20245;-65
2022/10/31 12:01:58;;;;;;;1.90;1.43;;;17.10;99.90;;;;;;5018074;28;20577;-64
2022/10/31 12:04:39;;;;;;;1.70;1.60;;;17.10;99.90;;;;;;5019200;28;20209;-65
2022/10/31 12:07:06;;;;;;;1.70;1.60;;;17.20;99.90;;;;;;5018696;28;20263;-64
2022/10/31 12:09:36;;;;;;;1.60;1.50;;;17.40;99.90;;;;;;5018048;28;20243;-65
2022/10/31 12:12:17;;;;;;;1.47;1.37;;;17.50;99.90;;;;;;5018951;28;20225;-64
2022/10/31 12:14:55;;;;;;;2.20;2.00;;;17.60;99.90;;;;;;5027709;28;20206;-66
2022/10/31 12:17:25;;;;;;;1.63;1.53;;;17.70;99.90;;;;;;5028629;28;20255;-66
2022/10/31 12:20:06;;;;;;;1.80;1.70;;;17.90;99.90;;;;;;5025394;28;20235;-65
2022/10/31 12:22:44;;;;;;;1.63;1.50;;;17.90;99.90;;;;;;5028215;28;20208;-65
2022/10/31 12:25:26;;;;;;;2.50;1.80;;;18.00;99.90;;;;;;5014342;28;20229;-65
2022/10/31 12:28:07;;;;;;;1.70;1.60;;;18.00;99.90;;;;;;5014283;28;20209;-65
2022/10/31 12:30:52;;;;;;;1.77;1.67;;;18.10;99.90;;;;;;5015369;28;20217;-65
2022/10/31 12:33:32;;;;;;;2.00;1.60;;;18.10;99.90;;;;;;5015951;28;20229;-66
2022/10/31 12:36:16;;;;;;;1.77;1.67;;;18.20;99.90;;;;;;5014103;28;20230;-64
2022/10/31 12:39:06;;;;;;;1.70;1.60;;;18.20;99.90;;;;;;5004873;28;20213;-64
2022/10/31 12:41:45;;;;;;;2.27;2.17;;;18.20;99.90;;;;;;5013125;28;20197;-64
2022/10/31 12:44:26;;;;;;;2.90;2.70;;;18.30;99.90;;;;;;5001211;28;20233;-65
2022/10/31 12:47:10;;;;;;;2.57;2.37;;;18.40;99.90;;;;;;5011742;28;20221;-65
2022/10/31 12:49:47;;;;;;;2.67;2.47;;;18.60;99.90;;;;;;5008231;28;20212;-64
2022/10/31 12:52:27;;;;;;;2.30;2.10;;;18.80;99.90;;;;;;5012320;28;20586;-65
2022/10/31 12:55:10;;;;;;;2.13;2.03;;;18.90;99.90;;;;;;5016508;28;20211;-64
2022/10/31 12:57:43;;;;;;;2.87;2.30;;;19.00;99.90;;;;;;5003082;28;20665;-64
2022/10/31 13:00:15;;;;;;;2.73;2.20;;;19.00;99.90;;;;;;5006610;28;20208;-66
2022/10/31 13:02:49;;;;;;;1.80;1.70;;;18.90;99.90;;;;;;5004648;28;20233;-66
2022/10/31 13:05:22;;;;;;;1.92;1.83;;;18.70;99.90;;;;;;5001660;28;20224;-65
2022/10/31 13:07:56;;;;;;;1.80;1.70;;;18.70;99.90;;;;;;5007281;28;20202;-65